Time;durP1;ratioP1;P1;durP2;ratioP2;P2;SDS_P1;SDS_P2;PMS_P1;PMS_P2;Temp;Humidity;BMP_temperature;BMP_pressure;BME280_temperature;BME280_humidity;BME280_pressure;Samples;Min_cycle;Max_cycle;Signal;HPM_P1;HPM_P2
2021/10/20 00:02:17;;;;;;;9.50;8.57;;;;;;;;;;5075572;28;20446;-76
2021/10/20 00:04:45;;;;;;;8.60;7.37;;;;;;;;;;5075737;28;20479;-76
2021/10/20 00:07:12;;;;;;;10.23;7.27;;;;;;;;;;5075117;28;20451;-75
2021/10/20 00:09:39;;;;;;;8.40;7.40;;;;;;;;;;5075380;28;20443;-76
2021/10/20 00:12:07;;;;;;;8.73;7.07;;;;;;;;;;5075487;28;21079;-76
2021/10/20 00:14:36;;;;;;;9.30;6.80;;;;;;;;;;5074908;28;20956;-75
2021/10/20 00:17:03;;;;;;;7.90;6.37;;;;;;;;;;5075204;28;20522;-76
2021/10/20 00:19:30;;;;;;;9.10;6.40;;;;;;;;;;5075274;28;20872;-77
2021/10/20 00:21:57;;;;;;;6.47;5.67;;;;;;;;;;5075177;28;20434;-77
2021/10/20 00:24:24;;;;;;;6.93;6.23;;;;;;;;;;5074749;28;20529;-77
2021/10/20 00:26:52;;;;;;;9.37;6.33;;;;;;;;;;5074727;28;20446;-77
2021/10/20 00:29:19;;;;;;;6.73;6.13;;;;;;;;;;5075549;28;20447;-77
2021/10/20 00:31:47;;;;;;;7.30;6.50;;;;;;;;;;5074894;28;20441;-77
2021/10/20 00:34:15;;;;;;;8.43;5.60;;;;;;;;;;5074859;28;20850;-78
2021/10/20 00:36:42;;;;;;;6.63;6.03;;;;;;;;;;5074824;28;20449;-77
2021/10/20 00:39:09;;;;;;;5.10;4.60;;;;;;;;;;5075251;28;20440;-77
2021/10/20 00:41:36;;;;;;;10.03;5.80;;;;;;;;;;5074988;28;20450;-77
2021/10/20 00:44:03;;;;;;;5.80;5.20;;;;;;;;;;5074297;28;20614;-77
2021/10/20 00:46:32;;;;;;;5.57;5.03;;;;;;;;;;5075019;28;20776;-77
2021/10/20 00:49:00;;;;;;;7.60;5.10;;;;;;;;;;5075033;28;20454;-77
2021/10/20 00:51:27;;;;;;;6.13;5.17;;;;;;;;;;5074827;28;20474;-77
2021/10/20 00:53:57;;;;;;;7.17;5.40;;;;;;;;;;5074575;28;20577;-77
2021/10/20 00:56:24;;;;;;;5.83;5.20;;;;;;;;;;5074781;28;20447;-77
2021/10/20 00:58:52;;;;;;;7.70;4.40;;;;;;;;;;5074099;28;20934;-76
2021/10/20 01:01:19;;;;;;;9.10;4.57;;;;;;;;;;5074348;28;20446;-76
2021/10/20 01:03:47;;;;;;;9.63;5.03;;;;;;;;;;5073907;28;20474;-77
2021/10/20 01:06:16;;;;;;;5.67;5.17;;;;;;;;;;5073950;28;20442;-77
2021/10/20 01:08:43;;;;;;;5.80;4.70;;;;;;;;;;5074242;28;20517;-78
2021/10/20 01:11:10;;;;;;;5.93;5.27;;;;;;;;;;5073721;28;20510;-79
2021/10/20 01:13:38;;;;;;;5.20;4.70;;;;;;;;;;5073771;28;20489;-80
2021/10/20 01:16:05;;;;;;;5.27;4.43;;;;;;;;;;5073805;28;20450;-80
2021/10/20 01:18:33;;;;;;;8.00;4.73;;;;;;;;;;5073708;28;20475;-79
2021/10/20 01:21:01;;;;;;;6.20;4.63;;;;;;;;;;5074470;28;20789;-79
2021/10/20 01:23:30;;;;;;;4.80;3.97;;;;;;;;;;5073631;28;20449;-79
2021/10/20 01:25:57;;;;;;;5.20;4.77;;;;;;;;;;5077188;28;20449;-81
2021/10/20 01:28:25;;;;;;;6.03;4.03;;;;;;;;;;5081884;28;20518;-81
2021/10/20 01:30:52;;;;;;;4.80;4.40;;;;;;;;;;5077957;28;20442;-82
2021/10/20 01:33:19;;;;;;;4.10;3.70;;;;;;;;;;5079225;28;20502;-81
2021/10/20 01:35:46;;;;;;;4.10;3.70;;;;;;;;;;5075442;28;20470;-81
2021/10/20 01:38:14;;;;;;;4.97;4.57;;;;;;;;;;5075398;28;20690;-82
2021/10/20 01:40:42;;;;;;;4.07;3.77;;;;;;;;;;5087163;28;20780;-79
2021/10/20 01:43:09;;;;;;;5.17;4.67;;;;;;;;;;5086091;28;20494;-84
2021/10/20 01:45:38;;;;;;;4.33;3.93;;;;;;;;;;5078893;28;20436;-82
2021/10/20 01:48:05;;;;;;;7.33;4.70;;;;;;;;;;5074790;28;20928;-82
2021/10/20 01:50:32;;;;;;;6.20;3.70;;;;;;;;;;5075102;28;20538;-81
2021/10/20 01:53:00;;;;;;;3.90;3.60;;;;;;;;;;5073963;28;20483;-84
2021/10/20 01:55:27;;;;;;;5.07;4.67;;;;;;;;;;5073559;28;20451;-79
2021/10/20 01:57:55;;;;;;;5.17;3.80;;;;;;;;;;5074192;28;20442;-83
2021/10/20 02:00:22;;;;;;;5.17;4.67;;;;;;;;;;5073567;28;20439;-83
2021/10/20 02:02:50;;;;;;;4.83;4.40;;;;;;;;;;5073313;28;20446;-83
2021/10/20 02:05:17;;;;;;;4.20;3.90;;;;;;;;;;5073930;28;20554;-81
2021/10/20 02:07:44;;;;;;;10.50;4.17;;;;;;;;;;5073477;28;20434;-82
2021/10/20 02:10:13;;;;;;;4.60;3.83;;;;;;;;;;5073655;28;21044;-84
2021/10/20 02:12:41;;;;;;;3.90;3.60;;;;;;;;;;5078722;28;20956;-84
2021/10/20 02:15:10;;;;;;;4.73;4.33;;;;;;;;;;5074648;28;20531;-82
2021/10/20 02:17:37;;;;;;;5.53;4.10;;;;;;;;;;5073716;28;20587;-82
2021/10/20 02:20:06;;;;;;;4.23;3.90;;;;;;;;;;5073106;28;20447;-83
2021/10/20 02:22:35;;;;;;;4.10;3.70;;;;;;;;;;5075271;28;20928;-82
2021/10/20 02:25:02;;;;;;;4.40;4.00;;;;;;;;;;5074931;28;20537;-83
2021/10/20 02:27:29;;;;;;;4.13;3.83;;;;;;;;;;5076249;28;20509;-84
2021/10/20 02:29:56;;;;;;;4.57;4.23;;;;;;;;;;5082067;28;20451;-84
2021/10/20 02:32:25;;;;;;;8.60;4.20;;;;;;;;;;5082976;28;20451;-85
2021/10/20 02:34:52;;;;;;;5.00;4.50;;;;;;;;;;5078732;28;20453;-84
2021/10/20 02:37:19;;;;;;;9.63;4.70;;;;;;;;;;5077817;28;20880;-85
2021/10/20 02:39:47;;;;;;;5.53;4.90;;;;;;;;;;5081441;28;20433;-84
2021/10/20 02:42:14;;;;;;;4.60;4.10;;;;;;;;;;5084244;28;20533;-83
2021/10/20 02:44:41;;;;;;;4.47;3.83;;;;;;;;;;5084859;28;21013;-84
2021/10/20 02:47:08;;;;;;;4.30;3.77;;;;;;;;;;5086665;28;20439;-84
2021/10/20 02:49:37;;;;;;;5.07;3.60;;;;;;;;;;5089417;28;20929;-86
2021/10/20 02:52:04;;;;;;;4.40;3.97;;;;;;;;;;5080829;28;20436;-85
2021/10/20 02:54:32;;;;;;;5.13;4.73;;;;;;;;;;5080825;28;20485;-86
2021/10/20 02:56:59;;;;;;;5.00;4.50;;;;;;;;;;5076573;28;20449;-86
2021/10/20 02:59:26;;;;;;;5.30;4.80;;;;;;;;;;5076881;28;20825;-84
2021/10/20 03:01:53;;;;;;;4.30;3.90;;;;;;;;;;5083465;28;20447;-86
2021/10/20 03:04:20;;;;;;;4.60;4.20;;;;;;;;;;5085190;28;20867;-86
2021/10/20 03:06:49;;;;;;;6.30;4.77;;;;;;;;;;5083922;28;20443;-87
2021/10/20 03:09:16;;;;;;;4.40;4.07;;;;;;;;;;5081282;28;20446;-86
2021/10/20 03:11:43;;;;;;;4.10;3.73;;;;;;;;;;5080781;28;20435;-85
2021/10/20 03:14:11;;;;;;;4.70;4.30;;;;;;;;;;5080346;28;20576;-88
2021/10/20 03:16:38;;;;;;;6.43;4.10;;;;;;;;;;5081459;28;20442;-87
2021/10/20 03:19:05;;;;;;;5.40;4.80;;;;;;;;;;5076690;28;20534;-85
2021/10/20 03:21:32;;;;;;;4.33;3.97;;;;;;;;;;5076400;28;20930;-84
2021/10/20 03:24:01;;;;;;;5.60;4.20;;;;;;;;;;5076423;28;20473;-85
2021/10/20 03:26:28;;;;;;;5.20;4.53;;;;;;;;;;5076812;28;20434;-85
2021/10/20 03:28:55;;;;;;;4.50;4.10;;;;;;;;;;5076315;28;20561;-85
2021/10/20 03:31:22;;;;;;;5.50;4.70;;;;;;;;;;5075910;28;20446;-84
2021/10/20 03:33:49;;;;;;;4.53;4.10;;;;;;;;;;5075853;28;20976;-85
2021/10/20 03:36:17;;;;;;;4.80;4.30;;;;;;;;;;5075762;28;20965;-84
2021/10/20 03:38:44;;;;;;;4.77;4.30;;;;;;;;;;5076636;28;20526;-84
2021/10/20 03:41:12;;;;;;;5.00;4.60;;;;;;;;;;5075878;28;20443;-86
2021/10/20 03:43:40;;;;;;;5.07;4.20;;;;;;;;;;5077327;28;20461;-85
2021/10/20 03:46:08;;;;;;;5.47;3.70;;;;;;;;;;5077712;28;20774;-86
2021/10/20 03:48:35;;;;;;;4.50;4.10;;;;;;;;;;5077782;28;20439;-85
2021/10/20 03:51:03;;;;;;;8.70;4.30;;;;;;;;;;5081104;28;20431;-84
2021/10/20 03:53:30;;;;;;;5.23;4.43;;;;;;;;;;5096630;28;20517;-85
2021/10/20 03:55:57;;;;;;;4.20;3.90;;;;;;;;;;5096582;28;20844;-85
2021/10/20 03:58:26;;;;;;;5.77;4.57;;;;;;;;;;5096083;28;20440;-85
2021/10/20 04:00:54;;;;;;;5.30;3.90;;;;;;;;;;5097731;28;20441;-84
2021/10/20 04:03:21;;;;;;;4.53;4.13;;;;;;;;;;5096127;28;20449;-85
2021/10/20 04:05:49;;;;;;;5.40;4.37;;;;;;;;;;5095731;28;20518;-85
2021/10/20 04:08:16;;;;;;;4.70;4.30;;;;;;;;;;5095813;28;20454;-84
2021/10/20 04:10:43;;;;;;;5.63;4.90;;;;;;;;;;5095947;28;20448;-85
2021/10/20 04:13:10;;;;;;;5.17;4.67;;;;;;;;;;5096313;28;20581;-84
2021/10/20 04:15:39;;;;;;;4.40;4.00;;;;;;;;;;5099003;28;20433;-84
2021/10/20 04:18:06;;;;;;;4.63;4.23;;;;;;;;;;5097336;28;20478;-85
2021/10/20 04:20:33;;;;;;;7.40;4.90;;;;;;;;;;5095464;28;20801;-76
2021/10/20 04:23:00;;;;;;;8.10;5.20;;;;;;;;;;5095795;28;20448;-77
2021/10/20 04:25:28;;;;;;;5.53;5.03;;;;;;;;;;5095018;28;20443;-77
2021/10/20 04:27:55;;;;;;;6.33;4.70;;;;;;;;;;5095330;28;20537;-78
2021/10/20 04:30:24;;;;;;;5.60;5.10;;;;;;;;;;5094099;28;20957;-78
2021/10/20 04:32:52;;;;;;;5.17;4.63;;;;;;;;;;5095204;28;20442;-77
2021/10/20 04:35:22;;;;;;;6.70;5.20;;;;;;;;;;5094573;28;20481;-76
2021/10/20 04:37:50;;;;;;;6.70;4.90;;;;;;;;;;5094977;28;20426;-77
2021/10/20 04:40:17;;;;;;;7.60;4.43;;;;;;;;;;5094553;28;20449;-75
2021/10/20 04:42:45;;;;;;;8.50;5.17;;;;;;;;;;5094730;28;20899;-78
2021/10/20 04:45:13;;;;;;;6.73;5.07;;;;;;;;;;5094785;28;20793;-78
2021/10/20 04:47:40;;;;;;;9.57;5.33;;;;;;;;;;5094625;28;20434;-78
2021/10/20 04:50:10;;;;;;;6.53;5.83;;;;;;;;;;5094629;28;20905;-78
2021/10/20 04:52:37;;;;;;;6.53;5.77;;;;;;;;;;5094219;28;20521;-78
2021/10/20 04:55:05;;;;;;;6.30;5.27;;;;;;;;;;5094734;28;20478;-77
2021/10/20 04:57:32;;;;;;;6.43;4.90;;;;;;;;;;5077365;28;20475;-78
2021/10/20 04:59:59;;;;;;;6.00;5.23;;;;;;;;;;5085648;28;20446;-77
2021/10/20 05:02:35;;;;;;;5.47;4.90;;;;;;;;;;5094861;28;20530;-77
2021/10/20 05:05:03;;;;;;;6.80;5.10;;;;;;;;;;5094061;28;20587;-76
2021/10/20 05:07:31;;;;;;;7.20;6.20;;;;;;;;;;5094554;28;20442;-77
2021/10/20 05:10:05;;;;;;;10.17;6.27;;;;;;;;;;5094291;28;20566;-76
2021/10/20 05:12:32;;;;;;;5.07;4.67;;;;;;;;;;5094213;28;20529;-76
2021/10/20 05:15:00;;;;;;;8.97;8.03;;;;;;;;;;5094042;28;20477;-76
2021/10/20 05:17:27;;;;;;;7.33;5.77;;;;;;;;;;5094397;28;20523;-76
2021/10/20 05:19:54;;;;;;;9.83;7.83;;;;;;;;;;5094059;28;20448;-76
2021/10/20 05:22:21;;;;;;;6.23;5.63;;;;;;;;;;5094033;28;20446;-77
2021/10/20 05:24:50;;;;;;;6.07;5.00;;;;;;;;;;5094032;28;20934;-77
2021/10/20 05:27:17;;;;;;;10.13;5.67;;;;;;;;;;5094307;28;20442;-76
2021/10/20 05:29:44;;;;;;;5.77;5.17;;;;;;;;;;5093755;28;20800;-76
2021/10/20 05:32:11;;;;;;;7.03;5.63;;;;;;;;;;5093852;28;20955;-76
2021/10/20 05:34:38;;;;;;;9.60;6.03;;;;;;;;;;5093974;28;20495;-77
2021/10/20 05:37:06;;;;;;;7.63;5.80;;;;;;;;;;5093677;28;20537;-77
2021/10/20 05:39:34;;;;;;;6.00;5.40;;;;;;;;;;5093386;28;20929;-78
2021/10/20 05:42:03;;;;;;;7.67;5.57;;;;;;;;;;5092527;28;20503;-77
2021/10/20 05:44:32;;;;;;;7.43;5.77;;;;;;;;;;5093019;28;20453;-75
2021/10/20 05:47:02;;;;;;;12.10;5.90;;;;;;;;;;5093898;28;20533;-78
2021/10/20 05:49:29;;;;;;;8.17;5.37;;;;;;;;;;5093568;28;20524;-77
2021/10/20 05:51:56;;;;;;;8.40;5.67;;;;;;;;;;5094197;28;20441;-78
2021/10/20 05:54:23;;;;;;;7.13;4.93;;;;;;;;;;5094349;28;20482;-78
2021/10/20 05:56:50;;;;;;;9.93;6.60;;;;;;;;;;5082037;28;20439;-78
2021/10/20 05:59:22;;;;;;;6.23;5.57;;;;;;;;;;5074288;28;20807;-77
2021/10/20 06:01:49;;;;;;;5.40;5.00;;;;;;;;;;5073725;28;20532;-78
2021/10/20 06:04:16;;;;;;;6.00;5.40;;;;;;;;;;5072861;28;20488;-78
2021/10/20 06:06:44;;;;;;;7.70;5.57;;;;;;;;;;5073124;28;20458;-78
2021/10/20 06:09:11;;;;;;;8.60;6.23;;;;;;;;;;5073849;28;20520;-79
2021/10/20 06:11:38;;;;;;;7.30;6.00;;;;;;;;;;5073394;28;20443;-78
2021/10/20 06:14:06;;;;;;;7.97;5.97;;;;;;;;;;5073452;28;20489;-78
2021/10/20 06:16:36;;;;;;;9.00;6.53;;;;;;;;;;5080313;28;20439;-78
2021/10/20 06:19:03;;;;;;;5.87;5.00;;;;;;;;;;5080364;28;20423;-79
2021/10/20 06:21:30;;;;;;;6.70;5.93;;;;;;;;;;5080043;28;20592;-79
2021/10/20 06:23:58;;;;;;;14.07;5.67;;;;;;;;;;5080406;28;20463;-79
2021/10/20 06:26:25;;;;;;;8.53;5.90;;;;;;;;;;5079694;28;20930;-78
2021/10/20 06:28:54;;;;;;;7.27;5.80;;;;;;;;;;5079611;28;20529;-78
2021/10/20 06:31:21;;;;;;;8.40;5.17;;;;;;;;;;5080432;28;20451;-78
2021/10/20 06:33:49;;;;;;;6.30;5.73;;;;;;;;;;5079795;28;20449;-78
2021/10/20 06:36:20;;;;;;;8.10;6.60;;;;;;;;;;5079468;28;20491;-78
2021/10/20 06:38:47;;;;;;;7.80;5.47;;;;;;;;;;5080051;28;20466;-79
2021/10/20 06:41:15;;;;;;;9.63;5.90;;;;;;;;;;5079806;28;20442;-79
2021/10/20 06:43:42;;;;;;;11.23;7.40;;;;;;;;;;5079589;28;20462;-79
2021/10/20 06:46:10;;;;;;;6.43;5.60;;;;;;;;;;5079821;28;20444;-79
2021/10/20 06:48:37;;;;;;;8.13;5.80;;;;;;;;;;5079772;28;20525;-78
2021/10/20 06:51:06;;;;;;;9.57;6.37;;;;;;;;;;5080227;28;20446;-77
2021/10/20 06:53:33;;;;;;;7.53;6.30;;;;;;;;;;5079450;28;20448;-78
2021/10/20 06:56:00;;;;;;;10.40;5.97;;;;;;;;;;5080250;28;20588;-79
2021/10/20 06:58:28;;;;;;;9.33;6.20;;;;;;;;;;5080320;28;20532;-78
2021/10/20 07:00:55;;;;;;;12.07;6.80;;;;;;;;;;5079301;28;20442;-78
2021/10/20 07:03:22;;;;;;;9.93;6.10;;;;;;;;;;5079834;28;20442;-78
2021/10/20 07:05:50;;;;;;;10.53;8.00;;;;;;;;;;5079884;28;20432;-79
2021/10/20 07:08:18;;;;;;;11.63;5.77;;;;;;;;;;5079190;28;20438;-79
2021/10/20 07:10:45;;;;;;;7.73;6.37;;;;;;;;;;5079623;28;20448;-78
2021/10/20 07:13:14;;;;;;;6.90;6.20;;;;;;;;;;5079607;28;20447;-79
2021/10/20 07:15:41;;;;;;;8.60;6.43;;;;;;;;;;5079251;28;20618;-78
2021/10/20 07:18:08;;;;;;;7.20;6.50;;;;;;;;;;5080014;28;20443;-79
2021/10/20 07:20:35;;;;;;;10.10;6.77;;;;;;;;;;5079756;28;20436;-78
2021/10/20 07:23:03;;;;;;;12.83;6.97;;;;;;;;;;5079843;28;20443;-78
2021/10/20 07:25:31;;;;;;;8.37;5.97;;;;;;;;;;5078829;28;20484;-78
2021/10/20 07:27:58;;;;;;;6.17;5.57;;;;;;;;;;5075411;28;20439;-77
2021/10/20 07:30:26;;;;;;;7.33;6.63;;;;;;;;;;5076348;28;20553;-78
2021/10/20 07:32:53;;;;;;;7.17;6.47;;;;;;;;;;5075806;28;20479;-78
2021/10/20 07:35:20;;;;;;;7.30;6.60;;;;;;;;;;5076453;28;20825;-78
2021/10/20 07:37:48;;;;;;;8.07;6.17;;;;;;;;;;5076081;28;20453;-78
2021/10/20 07:40:16;;;;;;;8.53;6.70;;;;;;;;;;5075754;28;20969;-78
2021/10/20 07:42:45;;;;;;;8.57;6.70;;;;;;;;;;5075738;28;20962;-78
2021/10/20 07:45:15;;;;;;;9.53;6.53;;;;;;;;;;5075405;28;20444;-78
2021/10/20 07:47:42;;;;;;;8.80;7.90;;;;;;;;;;5075485;28;20445;-77
2021/10/20 07:50:10;;;;;;;10.20;7.40;;;;;;;;;;5075489;28;20531;-78
2021/10/20 07:52:37;;;;;;;8.00;7.23;;;;;;;;;;5075477;28;21005;-77
2021/10/20 07:55:05;;;;;;;10.43;7.10;;;;;;;;;;5076131;28;20476;-78
2021/10/20 07:57:32;;;;;;;9.20;6.10;;;;;;;;;;5075641;28;20445;-78
2021/10/20 08:00:00;;;;;;;7.10;6.23;;;;;;;;;;5075926;28;20442;-78
2021/10/20 08:02:28;;;;;;;9.00;6.70;;;;;;;;;;5075456;28;20477;-78
2021/10/20 08:04:55;;;;;;;8.70;7.00;;;;;;;;;;5075549;28;20484;-78
2021/10/20 08:07:23;;;;;;;14.13;6.60;;;;;;;;;;5075316;28;20501;-78
2021/10/20 08:09:50;;;;;;;10.67;6.33;;;;;;;;;;5075862;28;20797;-79
2021/10/20 08:12:19;;;;;;;9.40;6.10;;;;;;;;;;5075690;28;20526;-78
2021/10/20 08:14:47;;;;;;;8.47;6.50;;;;;;;;;;5074913;28;20474;-79
2021/10/20 08:17:15;;;;;;;6.73;5.70;;;;;;;;;;5075397;28;20446;-78
2021/10/20 08:19:42;;;;;;;7.33;6.00;;;;;;;;;;5075466;28;20449;-79
2021/10/20 08:22:10;;;;;;;13.40;6.77;;;;;;;;;;5075235;28;20457;-80
2021/10/20 08:24:37;;;;;;;7.07;5.60;;;;;;;;;;5074898;28;20956;-78
2021/10/20 08:27:04;;;;;;;8.27;5.93;;;;;;;;;;5075175;28;20450;-78
2021/10/20 08:29:33;;;;;;;9.40;5.83;;;;;;;;;;5075299;28;20437;-78
2021/10/20 08:32:02;;;;;;;6.90;5.13;;;;;;;;;;5075181;28;20458;-78
2021/10/20 08:34:31;;;;;;;9.63;5.60;;;;;;;;;;5074968;28;20442;-78
2021/10/20 08:36:58;;;;;;;7.30;5.50;;;;;;;;;;5074559;28;20451;-78
2021/10/20 08:39:25;;;;;;;7.37;6.00;;;;;;;;;;5087071;28;20809;-78
2021/10/20 08:41:54;;;;;;;7.93;5.40;;;;;;;;;;5095163;28;20446;-79
2021/10/20 08:44:22;;;;;;;9.40;6.90;;;;;;;;;;5094407;28;20544;-79
2021/10/20 08:46:49;;;;;;;10.00;6.10;;;;;;;;;;5094953;28;20824;-79
2021/10/20 08:49:18;;;;;;;6.93;5.50;;;;;;;;;;5094552;28;21006;-80
2021/10/20 08:51:47;;;;;;;6.30;5.70;;;;;;;;;;5094913;28;20442;-79
2021/10/20 08:54:14;;;;;;;7.00;6.13;;;;;;;;;;5094985;28;20447;-78
2021/10/20 08:56:44;;;;;;;11.73;6.10;;;;;;;;;;5094516;28;20484;-78
2021/10/20 08:59:11;;;;;;;5.10;4.60;;;;;;;;;;5090896;28;20451;-77
2021/10/20 09:01:38;;;;;;;8.63;5.27;;;;;;;;;;5074751;28;20446;-78
2021/10/20 09:04:06;;;;;;;9.20;5.93;;;;;;;;;;5074096;28;21040;-79
2021/10/20 09:06:33;;;;;;;6.97;6.00;;;;;;;;;;5074405;28;20446;-79
2021/10/20 09:09:03;;;;;;;7.00;6.07;;;;;;;;;;5074338;28;20496;-79
2021/10/20 09:11:32;;;;;;;6.47;5.80;;;;;;;;;;5073885;28;20446;-78
2021/10/20 09:14:00;;;;;;;9.20;5.80;;;;;;;;;;5074591;28;20479;-80
2021/10/20 09:16:28;;;;;;;10.10;5.90;;;;;;;;;;5074067;28;20478;-79
2021/10/20 09:18:57;;;;;;;6.90;5.10;;;;;;;;;;5074090;28;20446;-78
2021/10/20 09:21:24;;;;;;;6.00;5.50;;;;;;;;;;5074556;28;20462;-78
2021/10/20 09:23:51;;;;;;;8.50;6.00;;;;;;;;;;5073653;28;20526;-79
2021/10/20 09:26:21;;;;;;;10.50;5.50;;;;;;;;;;5073587;28;20455;-79
2021/10/20 09:28:48;;;;;;;11.00;5.97;;;;;;;;;;5073558;28;20444;-79
2021/10/20 09:31:21;;;;;;;10.90;5.70;;;;;;;;;;5073974;28;20443;-81
2021/10/20 09:33:49;;;;;;;6.60;5.03;;;;;;;;;;5073788;28;20433;-81
2021/10/20 09:36:17;;;;;;;6.90;5.90;;;;;;;;;;5073259;28;20525;-79
2021/10/20 09:38:48;;;;;;;8.00;5.60;;;;;;;;;;5073441;28;21020;-78
2021/10/20 09:41:15;;;;;;;6.03;5.33;;;;;;;;;;5073995;28;20427;-79
2021/10/20 09:43:47;;;;;;;8.23;6.10;;;;;;;;;;5074100;28;20546;-78
2021/10/20 09:46:15;;;;;;;8.80;5.83;;;;;;;;;;5073700;28;20457;-79
2021/10/20 09:48:42;;;;;;;7.40;5.87;;;;;;;;;;5073398;28;20444;-79
2021/10/20 09:51:10;;;;;;;6.10;5.50;;;;;;;;;;5073032;28;20493;-80
2021/10/20 09:53:39;;;;;;;6.77;6.03;;;;;;;;;;5073582;28;20459;-79
2021/10/20 09:56:21;;;;;;;8.57;6.67;;;;;;;;;;5073518;28;20484;-79
2021/10/20 09:58:51;;;;;;;10.00;6.93;;;;;;;;;;5073686;28;20439;-79
2021/10/20 10:01:19;;;;;;;9.60;7.90;;;;;;;;;;5074054;28;20471;-78
2021/10/20 10:03:46;;;;;;;7.53;6.70;;;;;;;;;;5074112;28;20471;-79
2021/10/20 10:06:13;;;;;;;10.50;6.93;;;;;;;;;;5074598;28;20423;-79
2021/10/20 10:08:40;;;;;;;7.80;7.00;;;;;;;;;;5073437;28;20442;-78
2021/10/20 10:11:08;;;;;;;8.53;7.20;;;;;;;;;;5073359;28;20449;-79
2021/10/20 10:13:37;;;;;;;8.03;7.03;;;;;;;;;;5073133;28;20446;-79
2021/10/20 10:16:06;;;;;;;7.20;6.57;;;;;;;;;;5073366;28;20481;-79
2021/10/20 10:18:37;;;;;;;7.57;6.80;;;;;;;;;;5073025;28;20905;-79
2021/10/20 10:21:24;;;;;;;7.50;6.70;;;;;;;;;;5073661;28;20444;-79
2021/10/20 10:23:55;;;;;;;7.27;6.60;;;;;;;;;;5074355;28;20850;-77
2021/10/20 10:26:22;;;;;;;8.17;7.37;;;;;;;;;;5073077;28;20431;-79
2021/10/20 10:29:05;;;;;;;8.40;7.33;;;;;;;;;;5073264;28;20525;-80
2021/10/20 10:31:42;;;;;;;6.70;6.10;;;;;;;;;;5072878;28;20529;-79
2021/10/20 10:34:17;;;;;;;6.90;6.30;;;;;;;;;;5073642;28;20516;-80
2021/10/20 10:36:51;;;;;;;7.70;6.80;;;;;;;;;;5073116;28;20559;-79
2021/10/20 10:39:18;;;;;;;8.13;6.30;;;;;;;;;;5073839;28;20473;-79
2021/10/20 10:41:48;;;;;;;8.00;6.00;;;;;;;;;;5072693;28;20440;-78
2021/10/20 10:44:20;;;;;;;8.10;6.83;;;;;;;;;;5073462;28;20448;-78
2021/10/20 10:46:56;;;;;;;8.13;5.80;;;;;;;;;;5072878;28;20474;-79
2021/10/20 10:49:24;;;;;;;8.20;7.13;;;;;;;;;;5072734;28;20472;-78
2021/10/20 10:52:12;;;;;;;7.17;6.33;;;;;;;;;;5072649;28;20450;-79
2021/10/20 10:54:40;;;;;;;7.80;5.70;;;;;;;;;;5047573;28;20448;-78
2021/10/20 10:57:11;;;;;;;13.43;5.83;;;;;;;;;;5072583;28;20572;-79
2021/10/20 10:59:39;;;;;;;6.83;6.17;;;;;;;;;;5073738;28;20452;-79
2021/10/20 11:02:27;;;;;;;7.83;4.90;;;;;;;;;;5074460;28;20442;-79
2021/10/20 11:04:57;;;;;;;6.40;5.80;;;;;;;;;;5076384;28;20556;-79
2021/10/20 11:07:26;;;;;;;7.20;6.10;;;;;;;;;;5077341;28;20446;-79
2021/10/20 11:09:53;;;;;;;10.20;7.00;;;;;;;;;;5077162;28;20436;-79
2021/10/20 11:12:25;;;;;;;9.63;6.03;;;;;;;;;;5077003;28;20443;-80
2021/10/20 11:14:55;;;;;;;11.10;6.07;;;;;;;;;;5076572;28;20454;-80
2021/10/20 11:17:24;;;;;;;9.20;5.73;;;;;;;;;;5076064;28;20991;-79
2021/10/20 11:19:51;;;;;;;7.30;6.53;;;;;;;;;;5076364;28;20439;-80
2021/10/20 11:22:19;;;;;;;6.87;6.07;;;;;;;;;;5075962;28;20435;-79
2021/10/20 11:24:47;;;;;;;7.80;5.83;;;;;;;;;;5076158;28;20450;-80
2021/10/20 11:27:14;;;;;;;9.57;5.63;;;;;;;;;;5075870;28;20452;-80
2021/10/20 11:29:42;;;;;;;7.13;6.40;;;;;;;;;;5075900;28;20888;-79
2021/10/20 11:32:10;;;;;;;5.93;5.30;;;;;;;;;;5076127;28;20451;-79
2021/10/20 11:34:39;;;;;;;7.93;6.30;;;;;;;;;;5076215;28;20447;-80
2021/10/20 11:37:08;;;;;;;6.70;6.10;;;;;;;;;;5076011;28;20515;-79
2021/10/20 11:39:35;;;;;;;7.33;5.70;;;;;;;;;;5075963;28;20467;-80
2021/10/20 11:42:04;;;;;;;6.23;5.30;;;;;;;;;;5075964;28;20801;-80
2021/10/20 11:44:38;;;;;;;8.03;7.30;;;;;;;;;;5075871;28;20438;-79
2021/10/20 11:47:07;;;;;;;6.70;5.97;;;;;;;;;;5076473;28;20427;-80
2021/10/20 11:49:35;;;;;;;7.60;5.80;;;;;;;;;;5075801;28;20435;-79
2021/10/20 11:52:06;;;;;;;7.20;5.60;;;;;;;;;;5075778;28;20439;-80
2021/10/20 11:54:34;;;;;;;6.80;6.07;;;;;;;;;;5076393;28;20427;-80
2021/10/20 11:57:04;;;;;;;8.13;6.20;;;;;;;;;;5075933;28;20469;-80
2021/10/20 11:59:32;;;;;;;6.77;6.13;;;;;;;;;;5075994;28;20464;-72
2021/10/20 12:02:00;;;;;;;7.73;5.63;;;;;;;;;;5076363;28;20441;-73
2021/10/20 12:04:27;;;;;;;7.90;6.00;;;;;;;;;;5078777;28;20512;-86
2021/10/20 12:06:57;;;;;;;7.50;5.63;;;;;;;;;;5087153;28;20531;-86
2021/10/20 12:09:42;;;;;;;6.80;6.20;;;;;;;;;;5143991;27;20540;-85
2021/10/20 12:12:11;;;;;;;10.47;6.20;;;;;;;;;;5116845;28;20879;-87
2021/10/20 12:14:39;;;;;;;11.13;5.50;;;;;;;;;;5115856;28;20491;-87
2021/10/20 12:17:07;;;;;;;6.10;5.57;;;;;;;;;;5111648;28;20438;-83
2021/10/20 12:19:35;;;;;;;7.13;5.73;;;;;;;;;;5112651;28;20446;-84
2021/10/20 12:22:05;;;;;;;6.87;6.17;;;;;;;;;;5111870;28;20547;-83
2021/10/20 12:24:37;;;;;;;6.40;5.50;;;;;;;;;;5111983;28;20484;-85
2021/10/20 12:27:07;;;;;;;7.13;6.43;;;;;;;;;;5111103;28;20524;-84
2021/10/20 12:29:38;;;;;;;6.57;5.93;;;;;;;;;;5111964;28;20990;-86
2021/10/20 12:32:08;;;;;;;7.77;5.53;;;;;;;;;;5112519;28;20528;-86
2021/10/20 12:34:35;;;;;;;8.80;6.20;;;;;;;;;;5112244;28;20851;-83
2021/10/20 12:37:03;;;;;;;9.10;7.27;;;;;;;;;;5111903;28;20464;-84
2021/10/20 12:39:32;;;;;;;7.00;6.37;;;;;;;;;;5112407;28;20510;-83
2021/10/20 12:42:02;;;;;;;7.10;6.20;;;;;;;;;;5113823;28;20469;-87
2021/10/20 12:44:31;;;;;;;7.47;6.77;;;;;;;;;;5115926;28;20434;-86
2021/10/20 12:46:59;;;;;;;7.13;6.43;;;;;;;;;;5113188;28;20450;-86
2021/10/20 12:49:34;;;;;;;6.67;5.50;;;;;;;;;;5114634;28;20842;-86
2021/10/20 12:52:02;;;;;;;6.43;5.83;;;;;;;;;;5112590;28;20850;-85
2021/10/20 12:54:30;;;;;;;8.80;5.70;;;;;;;;;;5112153;28;20923;-84
2021/10/20 12:56:57;;;;;;;6.83;6.07;;;;;;;;;;5110790;28;20456;-86
2021/10/20 12:59:28;;;;;;;6.17;5.00;;;;;;;;;;5112141;28;20454;-84
2021/10/20 13:01:57;;;;;;;9.00;6.60;;;;;;;;;;5111994;28;20437;-84
2021/10/20 13:04:24;;;;;;;7.20;6.40;;;;;;;;;;5111000;28;20483;-84
2021/10/20 13:06:51;;;;;;;7.93;6.10;;;;;;;;;;5110902;28;20873;-85
2021/10/20 13:09:18;;;;;;;5.60;5.10;;;;;;;;;;5110483;28;20513;-86
2021/10/20 13:11:47;;;;;;;6.73;6.13;;;;;;;;;;5110480;28;20436;-85
2021/10/20 13:14:14;;;;;;;7.60;6.63;;;;;;;;;;5110374;28;20533;-86
2021/10/20 13:16:41;;;;;;;6.70;6.00;;;;;;;;;;5109994;28;20930;-85
2021/10/20 13:19:13;;;;;;;7.90;6.47;;;;;;;;;;5106918;28;20452;-86
2021/10/20 13:21:40;;;;;;;7.40;5.93;;;;;;;;;;5096851;28;20423;-85
2021/10/20 13:24:07;;;;;;;7.97;6.90;;;;;;;;;;5096393;28;20443;-83
2021/10/20 13:26:35;;;;;;;6.53;5.97;;;;;;;;;;5097306;28;20450;-83
2021/10/20 13:29:08;;;;;;;7.00;6.30;;;;;;;;;;5096472;28;20479;-82
2021/10/20 13:31:35;;;;;;;6.67;5.97;;;;;;;;;;5096185;28;20991;-83
2021/10/20 13:34:02;;;;;;;6.53;5.63;;;;;;;;;;5095996;28;20442;-83
2021/10/20 13:36:31;;;;;;;7.23;6.53;;;;;;;;;;5096022;28;20443;-82
2021/10/20 13:38:58;;;;;;;11.17;6.53;;;;;;;;;;5096041;28;21040;-79
2021/10/20 13:41:25;;;;;;;7.43;6.73;;;;;;;;;;5096123;28;20449;-83
2021/10/20 13:43:53;;;;;;;8.23;7.40;;;;;;;;;;5096160;28;20441;-80
2021/10/20 13:46:20;;;;;;;9.73;7.30;;;;;;;;;;5096256;28;20446;-80
2021/10/20 13:48:47;;;;;;;10.63;6.87;;;;;;;;;;5096017;28;20511;-81
2021/10/20 13:51:14;;;;;;;7.57;6.77;;;;;;;;;;5095932;28;20447;-78
2021/10/20 13:53:43;;;;;;;7.33;6.63;;;;;;;;;;5095609;28;20441;-78
2021/10/20 13:56:11;;;;;;;7.90;6.77;;;;;;;;;;5096176;28;20841;-78
2021/10/20 13:58:38;;;;;;;8.23;7.40;;;;;;;;;;5095644;28;20485;-79
2021/10/20 14:01:06;;;;;;;8.73;7.13;;;;;;;;;;5095533;28;20455;-78
2021/10/20 14:03:33;;;;;;;6.70;6.10;;;;;;;;;;5095736;28;20807;-79
2021/10/20 14:06:00;;;;;;;6.83;6.23;;;;;;;;;;5095834;28;20519;-77
2021/10/20 14:08:27;;;;;;;7.30;6.70;;;;;;;;;;5095474;28;20492;-78
2021/10/20 14:10:57;;;;;;;8.40;6.83;;;;;;;;;;5095626;28;20443;-79
2021/10/20 14:13:24;;;;;;;9.17;7.10;;;;;;;;;;5095819;28;20854;-80
2021/10/20 14:15:54;;;;;;;7.03;6.40;;;;;;;;;;5095677;28;21004;-78
2021/10/20 14:18:24;;;;;;;7.97;7.17;;;;;;;;;;5095184;28;21011;-79
2021/10/20 14:20:51;;;;;;;8.50;6.57;;;;;;;;;;5095490;28;20978;-78
2021/10/20 14:23:19;;;;;;;7.20;6.17;;;;;;;;;;5095396;28;20442;-79
2021/10/20 14:25:47;;;;;;;8.60;6.17;;;;;;;;;;5095317;28;20548;-78
2021/10/20 14:28:16;;;;;;;8.23;6.60;;;;;;;;;;5095283;28;20875;-78
2021/10/20 14:30:43;;;;;;;8.87;6.87;;;;;;;;;;5094305;28;20441;-78
2021/10/20 14:33:11;;;;;;;9.20;6.50;;;;;;;;;;5094791;28;20978;-77
2021/10/20 14:35:38;;;;;;;10.90;7.83;;;;;;;;;;5094783;28;20440;-78
2021/10/20 14:38:06;;;;;;;8.97;8.00;;;;;;;;;;5094632;28;20939;-78
2021/10/20 14:40:33;;;;;;;11.53;7.37;;;;;;;;;;5094817;28;20445;-79
2021/10/20 14:43:02;;;;;;;7.93;6.57;;;;;;;;;;5094721;28;20452;-78
2021/10/20 14:45:31;;;;;;;9.13;6.83;;;;;;;;;;5094358;28;20446;-78
2021/10/20 14:47:59;;;;;;;8.13;7.47;;;;;;;;;;5094429;28;20439;-77